Time;durP1;ratioP1;P1;durP2;ratioP2;P2;SDS_P1;SDS_P2;PMS_P1;PMS_P2;Temp;Humidity;BMP_temperature;BMP_pressure;BME280_temperature;BME280_humidity;BME280_pressure;Samples;Min_cycle;Max_cycle;Signal;HPM_P1;HPM_P2
2023/12/12 00:04:26;;;;;;;9.13;6.20;;;11.90;99.90;;;;;;10352010;28;20291;-80
2023/12/12 00:09:29;;;;;;;8.67;5.57;;;12.10;99.90;;;;;;10370777;28;20716;-80
2023/12/12 00:14:31;;;;;;;12.13;6.90;;;12.20;99.90;;;;;;10372876;28;20228;-80
2023/12/12 00:19:34;;;;;;;10.17;5.70;;;12.00;99.90;;;;;;10409652;28;20235;-81
2023/12/12 00:24:36;;;;;;;10.57;7.50;;;11.90;99.90;;;;;;10414669;28;20900;-81
2023/12/12 00:29:40;;;;;;;8.47;5.77;;;12.10;99.90;;;;;;10412720;28;20309;-81
2023/12/12 00:34:43;;;;;;;8.03;6.20;;;11.80;99.90;;;;;;10366119;28;20228;-81
2023/12/12 00:39:45;;;;;;;12.20;7.13;;;11.70;99.90;;;;;;10332001;28;20237;-81
2023/12/12 00:44:48;;;;;;;10.17;6.70;;;11.60;99.90;;;;;;10406098;28;20285;-81
2023/12/12 00:49:50;;;;;;;8.13;5.93;;;11.50;99.90;;;;;;10374645;28;20330;-81
2023/12/12 00:54:53;;;;;;;9.27;6.90;;;11.40;99.90;;;;;;10378906;28;20228;-81
2023/12/12 00:59:55;;;;;;;6.90;5.30;;;11.60;99.90;;;;;;10371558;28;20243;-81
2023/12/12 01:04:58;;;;;;;10.80;6.83;;;12.00;99.90;;;;;;10336004;28;20259;-81
2023/12/12 01:10:01;;;;;;;8.30;5.07;;;12.00;99.90;;;;;;10343203;28;20255;-81
2023/12/12 01:15:04;;;;;;;6.97;5.47;;;12.40;99.90;;;;;;10371465;28;20282;-81
2023/12/12 01:20:08;;;;;;;9.13;5.83;;;12.50;99.90;;;;;;10371079;28;20290;-81
2023/12/12 01:25:11;;;;;;;7.20;4.90;;;12.30;99.90;;;;;;10371078;28;20244;-81
2023/12/12 01:30:13;;;;;;;6.27;4.33;;;12.40;99.90;;;;;;10366980;28;20303;-81
2023/12/12 01:35:16;;;;;;;7.10;4.87;;;12.60;99.90;;;;;;10330227;28;20688;-81
2023/12/12 01:40:18;;;;;;;7.63;4.97;;;12.70;99.90;;;;;;10330639;28;20237;-81
2023/12/12 01:45:24;;;;;;;7.07;4.27;;;12.40;99.90;;;;;;10398761;28;20249;-81
2023/12/12 01:50:26;;;;;;;5.33;3.50;;;12.90;99.90;;;;;;10411317;28;20259;-80
2023/12/12 01:55:31;;;;;;;3.90;3.00;;;12.80;99.90;;;;;;10407532;28;20641;-80
2023/12/12 02:00:35;;;;;;;5.80;4.53;;;12.70;99.90;;;;;;10410837;28;20235;-80
2023/12/12 02:05:39;;;;;;;5.00;3.40;;;12.70;99.90;;;;;;10410639;28;20235;-81
2023/12/12 02:10:42;;;;;;;4.50;3.37;;;12.70;99.90;;;;;;10387384;28;20228;-81
2023/12/12 02:15:45;;;;;;;4.03;2.60;;;12.80;99.90;;;;;;10401202;28;20285;-81
2023/12/12 02:20:47;;;;;;;6.57;3.90;;;12.80;99.90;;;;;;10409863;28;20771;-81
2023/12/12 02:25:50;;;;;;;4.03;2.93;;;12.70;99.90;;;;;;10410375;28;20238;-81
2023/12/12 02:30:54;;;;;;;3.80;3.03;;;12.50;99.90;;;;;;10410093;28;20262;-81
2023/12/12 02:35:57;;;;;;;3.77;3.23;;;12.50;99.90;;;;;;10398033;28;20224;-81
2023/12/12 02:40:59;;;;;;;4.00;3.03;;;12.30;99.90;;;;;;10367327;28;20298;-81
2023/12/12 02:46:01;;;;;;;4.67;3.10;;;12.40;99.90;;;;;;10375956;28;20302;-81
2023/12/12 02:51:04;;;;;;;5.33;3.50;;;12.40;99.90;;;;;;10331809;28;20233;-81
2023/12/12 02:56:07;;;;;;;2.37;1.97;;;12.50;99.90;;;;;;10327745;28;20236;-81
2023/12/12 03:01:12;;;;;;;4.10;2.97;;;12.50;99.90;;;;;;10327728;28;20240;-81
2023/12/12 03:06:14;;;;;;;2.77;1.90;;;12.60;99.90;;;;;;10327323;28;20302;-81
2023/12/12 03:11:17;;;;;;;2.70;2.07;;;12.30;99.90;;;;;;10347891;28;20809;-81
2023/12/12 03:16:19;;;;;;;2.57;2.07;;;12.40;99.90;;;;;;10373432;28;20285;-81
2023/12/12 03:21:22;;;;;;;4.13;2.23;;;11.60;99.90;;;;;;10397970;28;20236;-81
2023/12/12 03:26:24;;;;;;;4.10;2.30;;;10.70;99.90;;;;;;10387743;28;20251;-81
2023/12/12 03:31:27;;;;;;;2.53;1.13;;;9.70;99.90;;;;;;10390731;28;20228;-81
2023/12/12 03:36:29;;;;;;;3.80;1.30;;;9.10;99.90;;;;;;10376949;28;20235;-81
2023/12/12 03:41:32;;;;;;;3.37;1.40;;;9.30;99.90;;;;;;10416770;28;20238;-81
2023/12/12 03:46:34;;;;;;;2.90;1.97;;;8.20;99.90;;;;;;10415908;28;20262;-81
2023/12/12 03:51:36;;;;;;;4.83;1.53;;;8.00;99.90;;;;;;10415921;28;20234;-81
2023/12/12 03:56:39;;;;;;;5.53;2.10;;;7.70;99.90;;;;;;10415555;28;20247;-81
2023/12/12 04:01:47;;;;;;;2.67;1.77;;;7.50;99.90;;;;;;10377953;28;20286;-81
2023/12/12 04:06:50;;;;;;;2.87;1.53;;;7.20;99.90;;;;;;10411958;28;20292;-81
2023/12/12 04:11:52;;;;;;;2.67;1.37;;;7.00;99.90;;;;;;10399388;28;20227;-81
2023/12/12 04:16:55;;;;;;;3.53;1.20;;;7.10;99.90;;;;;;10415247;28;20235;-81
2023/12/12 04:21:57;;;;;;;2.90;1.63;;;6.80;99.90;;;;;;10412949;28;20234;-81
2023/12/12 04:27:00;;;;;;;2.37;1.50;;;6.90;99.90;;;;;;10413554;28;20332;-81
2023/12/12 04:32:02;;;;;;;3.37;2.00;;;7.00;99.90;;;;;;10393512;28;20228;-81
2023/12/12 04:37:05;;;;;;;1.93;1.20;;;6.80;99.90;;;;;;10373186;28;20309;-81
2023/12/12 04:42:07;;;;;;;2.67;1.80;;;6.50;99.90;;;;;;10372861;28;20246;-81
2023/12/12 04:47:10;;;;;;;4.70;2.37;;;7.00;99.90;;;;;;10373160;28;20364;-81
2023/12/12 04:52:12;;;;;;;5.80;1.43;;;7.50;99.90;;;;;;10372201;28;20301;-81
2023/12/12 04:57:15;;;;;;;2.03;1.70;;;8.30;99.90;;;;;;10371193;28;20305;-81
2023/12/12 05:02:19;;;;;;;3.03;2.23;;;8.40;99.90;;;;;;10336222;28;20295;-81
2023/12/12 05:07:22;;;;;;;1.50;1.27;;;8.80;99.90;;;;;;10331465;28;20669;-80
2023/12/12 05:12:25;;;;;;;2.30;1.67;;;8.90;99.90;;;;;;10382267;28;20304;-81
2023/12/12 05:17:27;;;;;;;3.13;2.30;;;9.30;99.90;;;;;;10409862;28;20226;-81
2023/12/12 05:22:31;;;;;;;2.60;2.40;;;9.30;99.90;;;;;;10376019;28;20261;-81
2023/12/12 05:27:33;;;;;;;4.23;2.77;;;9.30;99.90;;;;;;10392869;28;20248;-81
2023/12/12 05:32:36;;;;;;;3.00;2.67;;;9.20;99.90;;;;;;10400183;28;20242;-81
2023/12/12 05:37:38;;;;;;;4.57;2.50;;;9.00;99.90;;;;;;10411914;28;20602;-81
2023/12/12 05:42:41;;;;;;;3.27;2.73;;;9.30;99.90;;;;;;10410487;28;20300;-81
2023/12/12 05:47:44;;;;;;;5.27;3.87;;;9.30;99.90;;;;;;10380192;28;20260;-81
2023/12/12 05:52:46;;;;;;;8.33;4.30;;;9.80;99.90;;;;;;10368851;28;20239;-81
2023/12/12 05:57:49;;;;;;;4.27;3.20;;;9.80;99.90;;;;;;10369453;28;20758;-81
2023/12/12 06:02:51;;;;;;;7.23;4.30;;;9.70;99.90;;;;;;10369845;28;20232;-81
2023/12/12 06:07:54;;;;;;;8.47;4.57;;;9.80;99.90;;;;;;10337948;28;21052;-81
2023/12/12 06:12:57;;;;;;;4.90;3.00;;;9.50;99.90;;;;;;10374805;28;20243;-80
2023/12/12 06:18:00;;;;;;;4.70;3.20;;;9.90;99.90;;;;;;10402540;28;20233;-81
2023/12/12 06:23:02;;;;;;;5.10;3.70;;;10.20;99.90;;;;;;10378461;28;20673;-81
2023/12/12 06:28:05;;;;;;;5.77;3.70;;;10.20;99.90;;;;;;10366206;28;20256;-80
2023/12/12 06:33:07;;;;;;;4.50;3.90;;;10.20;99.90;;;;;;10368507;28;20282;-80
2023/12/12 06:38:10;;;;;;;5.17;3.63;;;10.20;99.90;;;;;;10405823;28;20239;-80
2023/12/12 06:43:12;;;;;;;5.77;3.87;;;9.90;99.90;;;;;;10409547;28;20289;-80
2023/12/12 06:48:15;;;;;;;6.87;3.93;;;10.10;99.90;;;;;;10409102;28;20266;-80
2023/12/12 06:53:18;;;;;;;7.43;4.93;;;10.00;99.90;;;;;;10408086;28;20238;-81
2023/12/12 06:58:22;;;;;;;6.13;4.60;;;9.40;99.90;;;;;;10408754;28;20291;-81
2023/12/12 07:03:24;;;;;;;5.90;3.97;;;8.80;99.90;;;;;;10408216;28;20297;-81
2023/12/12 07:08:27;;;;;;;6.90;3.37;;;8.50;99.90;;;;;;10408414;28;20789;-81
2023/12/12 07:13:31;;;;;;;5.97;4.00;;;8.40;99.90;;;;;;10409206;28;20860;-81
2023/12/12 07:18:33;;;;;;;9.53;6.30;;;8.40;99.90;;;;;;10369303;28;20736;-81
2023/12/12 07:23:39;;;;;;;4.90;3.43;;;8.40;99.90;;;;;;10362841;28;20298;-81
2023/12/12 07:28:41;;;;;;;5.33;3.33;;;8.60;99.90;;;;;;10384312;28;20309;-81
2023/12/12 07:33:44;;;;;;;6.23;3.20;;;9.20;99.90;;;;;;10371470;28;20618;-81
2023/12/12 07:38:46;;;;;;;6.97;2.80;;;9.40;99.90;;;;;;10379865;28;20236;-81
2023/12/12 07:43:48;;;;;;;8.73;5.40;;;9.40;99.90;;;;;;10373976;28;20679;-81
2023/12/12 07:48:53;;;;;;;5.00;3.70;;;9.50;99.90;;;;;;10388258;28;20276;-81
2023/12/12 07:54:01;;;;;;;5.63;3.73;;;9.60;99.90;;;;;;10394198;28;20235;-81
2023/12/12 07:59:03;;;;;;;8.00;4.97;;;9.60;99.90;;;;;;10390517;28;20265;-81
2023/12/12 08:04:06;;;;;;;7.03;3.37;;;8.90;99.90;;;;;;10391876;28;20231;-81
2023/12/12 08:09:08;;;;;;;5.63;3.67;;;9.10;99.90;;;;;;10406203;28;20255;-81
2023/12/12 08:14:11;;;;;;;4.40;3.03;;;8.90;99.90;;;;;;10407371;28;20254;-81
2023/12/12 08:19:15;;;;;;;5.97;4.83;;;9.30;99.90;;;;;;10414132;28;20308;-81
2023/12/12 08:24:18;;;;;;;9.90;6.50;;;8.90;99.90;;;;;;10413332;28;20246;-81
2023/12/12 08:29:20;;;;;;;4.70;4.17;;;8.70;99.90;;;;;;10414517;28;20301;-81
2023/12/12 08:34:23;;;;;;;8.63;4.50;;;8.70;99.90;;;;;;10387572;28;20268;-81
2023/12/12 08:39:26;;;;;;;6.63;3.63;;;8.80;99.90;;;;;;10373261;28;20634;-80
2023/12/12 08:44:29;;;;;;;11.20;5.73;;;8.90;99.90;;;;;;10373056;28;20293;-81
2023/12/12 08:49:33;;;;;;;7.70;4.57;;;9.20;99.90;;;;;;10411067;28;20809;-81
2023/12/12 08:54:36;;;;;;;7.93;5.23;;;9.30;99.90;;;;;;10412460;28;20227;-81
2023/12/12 08:59:39;;;;;;;4.80;4.00;;;9.20;99.90;;;;;;10412994;28;20233;-80
2023/12/12 09:04:42;;;;;;;4.43;3.07;;;9.10;99.90;;;;;;10394995;28;20240;-80
2023/12/12 09:09:44;;;;;;;6.17;4.43;;;9.60;99.90;;;;;;10393160;28;20672;-80
2023/12/12 09:14:46;;;;;;;4.03;3.20;;;9.70;99.90;;;;;;10397044;28;20257;-80
2023/12/12 09:19:49;;;;;;;8.53;4.60;;;9.70;99.90;;;;;;10411008;28;20281;-80
2023/12/12 09:24:52;;;;;;;3.80;2.67;;;9.80;99.90;;;;;;10412070;28;20247;-80
2023/12/12 09:29:54;;;;;;;7.73;5.63;;;10.10;99.90;;;;;;10410668;28;20267;-80
2023/12/12 09:34:57;;;;;;;5.60;4.33;;;10.00;99.90;;;;;;10411690;28;20274;-80
2023/12/12 09:40:00;;;;;;;7.63;5.00;;;9.80;99.90;;;;;;10411880;28;20231;-80
2023/12/12 09:45:10;;;;;;;4.47;4.00;;;9.40;99.90;;;;;;10370322;28;20232;-80
2023/12/12 09:50:13;;;;;;;6.60;5.33;;;9.10;99.90;;;;;;10369887;28;20329;-81
2023/12/12 09:55:19;;;;;;;10.60;6.93;;;8.80;99.90;;;;;;10370646;28;20236;-80
2023/12/12 10:00:22;;;;;;;5.80;4.73;;;8.60;99.90;;;;;;10369046;28;20637;-81
2023/12/12 10:05:28;;;;;;;5.30;4.33;;;8.50;99.90;;;;;;10347367;28;20225;-81
2023/12/12 10:10:30;;;;;;;9.60;8.03;;;8.90;99.90;;;;;;10382887;28;20245;-80
2023/12/12 10:15:33;;;;;;;9.83;7.67;;;8.70;99.90;;;;;;10410371;28;20672;-80
2023/12/12 10:20:36;;;;;;;11.83;6.93;;;8.60;99.90;;;;;;10408391;28;20316;-80
2023/12/12 10:25:49;;;;;;;13.07;8.00;;;9.20;99.90;;;;;;10409444;28;20680;-80
2023/12/12 10:30:53;;;;;;;12.00;8.90;;;9.10;99.90;;;;;;10378253;28;20280;-79
2023/12/12 10:35:57;;;;;;;7.23;5.20;;;8.90;99.90;;;;;;10395931;28;20225;-80
2023/12/12 10:41:15;;;;;;;8.83;6.57;;;8.90;99.90;;;;;;10327874;28;20240;-80
2023/12/12 10:46:19;;;;;;;8.57;7.63;;;9.00;99.90;;;;;;10043966;28;9999791;-80
2023/12/12 10:51:23;;;;;;;12.83;9.57;;;9.00;99.90;;;;;;10363362;28;20317;-80
2023/12/12 10:56:28;;;;;;;8.47;7.37;;;8.90;99.90;;;;;;10403704;28;20227;-80
2023/12/12 11:01:32;;;;;;;8.57;6.87;;;9.00;99.90;;;;;;10384181;28;20230;-81
2023/12/12 11:06:36;;;;;;;11.87;9.57;;;9.00;99.90;;;;;;10405596;28;20293;-80
2023/12/12 11:11:42;;;;;;;10.40;6.87;;;8.80;99.90;;;;;;10403679;28;20259;-80
2023/12/12 11:16:44;;;;;;;10.60;8.30;;;8.80;99.90;;;;;;10404424;28;20237;-80
2023/12/12 11:21:50;;;;;;;9.03;7.33;;;8.70;99.90;;;;;;10402874;28;20265;-80
2023/12/12 11:26:53;;;;;;;11.70;9.60;;;8.60;99.90;;;;;;10354493;28;20318;-80
2023/12/12 11:32:03;;;;;;;10.27;7.57;;;8.80;99.90;;;;;;10396738;28;20254;-80
2023/12/12 11:37:06;;;;;;;3.93;3.53;;;8.60;99.90;;;;;;10403510;28;20654;-80
2023/12/12 11:42:17;;;;;;;12.20;8.20;;;8.80;99.90;;;;;;10404558;28;20237;-80
2023/12/12 11:47:40;;;;;;;10.67;8.67;;;8.80;99.90;;;;;;10397311;28;20268;-80
2023/12/12 11:52:43;;;;;;;6.13;4.73;;;8.40;99.90;;;;;;10407092;28;20660;-80
2023/12/12 11:57:46;;;;;;;10.83;8.20;;;8.80;99.90;;;;;;10411663;28;20227;-79
2023/12/12 12:02:49;;;;;;;10.50;9.07;;;8.70;99.90;;;;;;10412647;28;20295;-80
2023/12/12 12:07:52;;;;;;;13.73;10.27;;;8.20;99.90;;;;;;10412113;28;20247;-80
2023/12/12 12:12:59;;;;;;;13.30;9.70;;;8.20;99.90;;;;;;10388271;28;20267;-80
2023/12/12 12:18:01;;;;;;;5.10;4.53;;;8.30;99.90;;;;;;10396586;28;20230;-80
2023/12/12 12:23:07;;;;;;;4.80;3.27;;;8.20;99.90;;;;;;10400997;28;20293;-80
2023/12/12 12:28:09;;;;;;;8.30;6.93;;;8.70;99.90;;;;;;10412993;28;20239;-80
2023/12/12 12:33:13;;;;;;;5.60;4.10;;;9.10;99.90;;;;;;10414531;28;20295;-80
2023/12/12 12:38:23;;;;;;;7.13;6.37;;;8.70;99.90;;;;;;10413899;28;20243;-80
2023/12/12 12:43:26;;;;;;;5.13;4.63;;;8.90;99.90;;;;;;10413803;28;20239;-80
2023/12/12 12:48:29;;;;;;;6.53;5.37;;;8.70;99.90;;;;;;10410114;28;20275;-80
2023/12/12 12:53:33;;;;;;;8.33;6.87;;;8.70;99.90;;;;;;10412813;28;20231;-80
2023/12/12 12:58:35;;;;;;;7.77;6.27;;;8.40;99.90;;;;;;10412543;28;20238;-80
2023/12/12 13:03:41;;;;;;;6.43;4.97;;;8.20;99.90;;;;;;10411600;28;20871;-79
2023/12/12 13:08:45;;;;;;;8.57;5.77;;;8.50;99.90;;;;;;10411679;28;20247;-80
2023/12/12 13:13:49;;;;;;;7.23;5.43;;;8.90;99.90;;;;;;10412030;28;20231;-79
2023/12/12 13:18:52;;;;;;;6.47;5.07;;;9.20;99.90;;;;;;10411862;28;20231;-79
2023/12/12 13:23:55;;;;;;;4.73;3.67;;;9.50;99.90;;;;;;10411633;28;20254;-80
2023/12/12 13:28:57;;;;;;;9.00;6.30;;;9.10;99.90;;;;;;10410580;28;20250;-80
2023/12/12 13:34:00;;;;;;;8.07;6.67;;;8.90;99.90;;;;;;10411422;28;20238;-79
2023/12/12 13:39:12;;;;;;;10.30;8.27;;;8.60;99.90;;;;;;10409765;28;20646;-79
2023/12/12 13:44:19;;;;;;;7.93;5.70;;;8.50;99.90;;;;;;10411009;28;20234;-80
2023/12/12 13:49:21;;;;;;;7.53;5.47;;;8.90;99.90;;;;;;10384519;28;20263;-79
2023/12/12 13:54:24;;;;;;;11.70;9.13;;;8.60;99.90;;;;;;10402862;28;20756;-79
2023/12/12 13:59:26;;;;;;;17.93;10.73;;;8.10;99.90;;;;;;10409573;28;20970;-80
2023/12/12 14:04:29;;;;;;;12.73;9.53;;;7.80;99.90;;;;;;10376233;28;20692;-80
2023/12/12 14:09:32;;;;;;;25.83;14.07;;;7.70;99.90;;;;;;10372639;28;20250;-80
2023/12/12 14:14:34;;;;;;;24.90;10.73;;;7.60;99.90;;;;;;10408520;28;20223;-80
2023/12/12 14:19:37;;;;;;;10.27;7.93;;;7.40;99.90;;;;;;10408035;28;20301;-80
2023/12/12 14:24:40;;;;;;;13.87;8.10;;;7.50;99.90;;;;;;10409168;28;20238;-80
2023/12/12 14:29:44;;;;;;;99.93;40.13;;;7.50;99.90;;;;;;10408583;28;20313;-80
2023/12/12 14:34:47;;;;;;;23.03;10.60;;;7.40;99.90;;;;;;10407276;28;20228;-80
2023/12/12 14:39:50;;;;;;;10.67;7.57;;;7.30;99.90;;;;;;10408349;28;20235;-81
2023/12/12 14:44:52;;;;;;;13.47;9.33;;;7.20;99.90;;;;;;10407572;28;20289;-80
2023/12/12 14:49:55;;;;;;;24.87;13.73;;;7.20;99.90;;;;;;10406232;28;20402;-81
2023/12/12 14:54:59;;;;;;;23.03;14.37;;;7.00;99.90;;;;;;10407724;28;20216;-80
2023/12/12 15:00:02;;;;;;;79.40;30.97;;;6.70;99.90;;;;;;10408203;28;20233;-80
2023/12/12 15:05:18;;;;;;;36.83;17.80;;;6.50;99.90;;;;;;10407690;28;20226;-80
2023/12/12 15:10:21;;;;;;;14.17;10.03;;;6.40;99.90;;;;;;10387305;28;20270;-79
2023/12/12 15:15:24;;;;;;;23.90;12.80;;;6.30;99.90;;;;;;10366072;28;20240;-80
2023/12/12 15:20:26;;;;;;;59.43;27.53;;;6.30;99.90;;;;;;10403524;28;20232;-80
2023/12/12 15:25:29;;;;;;;27.73;16.03;;;6.30;99.90;;;;;;10405823;28;20323;-79
2023/12/12 15:30:43;;;;;;;43.83;22.17;;;6.10;99.90;;;;;;10406133;28;20285;-79
2023/12/12 15:35:46;;;;;;;23.47;14.63;;;6.40;99.90;;;;;;10371349;28;20291;-80
2023/12/12 15:40:49;;;;;;;32.27;16.30;;;6.40;99.90;;;;;;10405720;28;20239;-79
2023/12/12 15:45:52;;;;;;;39.70;18.73;;;6.50;99.90;;;;;;10405404;28;20264;-80
2023/12/12 15:50:54;;;;;;;25.73;16.10;;;6.40;99.90;;;;;;10405687;28;20253;-80
2023/12/12 15:55:58;;;;;;;43.30;23.37;;;6.30;99.90;;;;;;10358945;28;20306;-80
2023/12/12 16:01:00;;;;;;;45.50;24.17;;;6.10;99.90;;;;;;10369086;28;20299;-80
2023/12/12 16:06:05;;;;;;;42.33;22.30;;;6.00;99.90;;;;;;10364677;28;20229;-80
2023/12/12 16:11:08;;;;;;;32.80;20.57;;;6.20;99.90;;;;;;10326842;28;20250;-81
2023/12/12 16:16:13;;;;;;;38.07;19.53;;;6.20;99.90;;;;;;10354088;28;20292;-81
2023/12/12 16:21:17;;;;;;;30.40;18.83;;;6.30;99.90;;;;;;10367931;28;21371;-80
2023/12/12 16:26:20;;;;;;;35.23;19.97;;;6.10;99.90;;;;;;10378401;28;20236;-81
2023/12/12 16:31:22;;;;;;;33.37;19.87;;;6.20;99.90;;;;;;10023501;28;9999799;-81
2023/12/12 16:36:25;;;;;;;22.57;13.30;;;6.20;99.90;;;;;;10363692;28;20533;-81
2023/12/12 16:41:31;;;;;;;27.53;16.87;;;6.20;99.90;;;;;;10371893;28;20242;-80
2023/12/12 16:46:34;;;;;;;29.47;17.60;;;6.30;99.90;;;;;;10373912;28;20283;-81
2023/12/12 16:51:36;;;;;;;33.63;19.87;;;6.30;99.90;;;;;;10358260;28;20290;-80
2023/12/12 16:56:39;;;;;;;19.63;12.13;;;6.30;99.90;;;;;;10389555;28;20237;-81
2023/12/12 17:01:41;;;;;;;37.10;21.27;;;7.30;99.90;;;;;;10371906;28;20242;-81
2023/12/12 17:06:44;;;;;;;42.33;24.73;;;6.90;99.90;;;;;;10368444;28;20297;-82
2023/12/12 17:11:47;;;;;;;36.03;22.50;;;6.60;99.90;;;;;;10367003;28;20294;-81
2023/12/12 17:16:49;;;;;;;33.13;20.60;;;6.30;99.90;;;;;;10367437;28;20235;-81
2023/12/12 17:21:53;;;;;;;33.53;22.03;;;6.50;99.90;;;;;;10382818;28;20247;-81
2023/12/12 17:26:57;;;;;;;46.50;26.47;;;6.30;99.90;;;;;;10407839;28;20255;-81
2023/12/12 17:32:03;;;;;;;58.10;29.73;;;6.30;99.90;;;;;;10373888;28;20316;-81
2023/12/12 17:37:07;;;;;;;88.03;41.97;;;6.00;99.90;;;;;;10340766;28;20242;-81
2023/12/12 17:42:09;;;;;;;79.30;36.27;;;5.80;99.90;;;;;;10362942;28;20267;-81
2023/12/12 17:47:11;;;;;;;60.63;29.47;;;5.80;99.90;;;;;;10329299;28;20273;-81
2023/12/12 17:52:14;;;;;;;59.80;33.33;;;5.70;99.90;;;;;;10327720;28;20257;-81
2023/12/12 17:57:17;;;;;;;64.03;33.50;;;5.60;99.90;;;;;;10329360;28;20236;-81
2023/12/12 18:02:19;;;;;;;58.93;32.60;;;5.70;99.90;;;;;;10328923;28;20257;-81
2023/12/12 18:07:22;;;;;;;51.47;31.10;;;5.50;99.90;;;;;;10334424;28;20243;-82
2023/12/12 18:12:24;;;;;;;49.57;29.93;;;5.50;99.90;;;;;;10367257;28;20255;-81
2023/12/12 18:17:27;;;;;;;62.00;33.03;;;5.50;99.90;;;;;;10342992;28;20289;-80
2023/12/12 18:22:29;;;;;;;47.87;28.93;;;5.70;99.90;;;;;;10383507;28;20290;-80
2023/12/12 18:27:32;;;;;;;87.83;40.60;;;6.00;99.90;;;;;;10361014;28;20690;-80
2023/12/12 18:32:36;;;;;;;44.80;24.43;;;6.10;99.90;;;;;;10406900;28;20251;-81
2023/12/12 18:37:38;;;;;;;84.07;38.07;;;6.00;99.90;;;;;;10341178;28;20243;-81
2023/12/12 18:42:41;;;;;;;146.37;57.57;;;5.90;99.90;;;;;;10329919;28;20297;-81
2023/12/12 18:47:43;;;;;;;40.50;23.73;;;6.20;99.90;;;;;;10365677;28;20267;-81
2023/12/12 18:52:46;;;;;;;44.63;28.30;;;6.30;99.90;;;;;;10391664;28;20312;-81
2023/12/12 18:57:48;;;;;;;63.40;36.73;;;6.50;99.90;;;;;;10380389;28;20228;-81
2023/12/12 19:02:51;;;;;;;63.37;38.93;;;6.60;99.90;;;;;;10399156;28;20681;-81
2023/12/12 19:07:54;;;;;;;54.67;35.60;;;6.30;99.90;;;;;;10406973;28;20237;-81
2023/12/12 19:12:58;;;;;;;48.47;28.20;;;6.20;99.90;;;;;;10393527;28;20267;-81
2023/12/12 19:18:01;;;;;;;54.63;34.07;;;6.50;99.90;;;;;;10326048;28;20230;-81
2023/12/12 19:23:07;;;;;;;57.47;32.57;;;6.30;99.90;;;;;;10346175;28;20286;-81
2023/12/12 19:28:09;;;;;;;52.13;32.80;;;6.90;99.90;;;;;;10366676;28;20236;-81
2023/12/12 19:33:12;;;;;;;52.63;32.10;;;6.50;99.90;;;;;;10346034;28;20256;-81
2023/12/12 19:38:15;;;;;;;56.70;31.77;;;6.50;99.90;;;;;;10376942;28;20240;-80
2023/12/12 19:43:17;;;;;;;71.87;38.87;;;6.80;99.90;;;;;;10390463;28;20535;-81
2023/12/12 19:48:20;;;;;;;68.23;36.07;;;6.60;99.90;;;;;;10357688;28;20266;-80
2023/12/12 19:53:22;;;;;;;48.07;25.50;;;6.10;99.90;;;;;;10377588;28;20305;-80
2023/12/12 19:58:25;;;;;;;36.63;22.63;;;6.30;99.90;;;;;;10365174;28;20286;-81
2023/12/12 20:03:28;;;;;;;65.20;35.50;;;6.70;99.90;;;;;;10365265;28;20739;-80
2023/12/12 20:08:31;;;;;;;78.97;42.40;;;7.10;99.90;;;;;;10403968;28;20241;-80
2023/12/12 20:13:34;;;;;;;121.63;59.10;;;7.20;99.90;;;;;;10404484;28;20255;-81
2023/12/12 20:18:36;;;;;;;84.50;40.03;;;7.40;99.90;;;;;;10403754;28;20220;-80
2023/12/12 20:23:39;;;;;;;72.90;38.87;;;7.50;99.90;;;;;;10415085;28;20995;-80
2023/12/12 20:28:42;;;;;;;49.67;27.33;;;7.30;99.90;;;;;;10359418;28;20294;-80
2023/12/12 20:33:45;;;;;;;45.13;27.90;;;7.40;99.90;;;;;;10031561;28;10000491;-81
2023/12/12 20:38:48;;;;;;;56.87;35.43;;;7.70;99.90;;;;;;10370184;28;20259;-81
2023/12/12 20:43:50;;;;;;;32.27;22.87;;;7.80;99.90;;;;;;10352174;28;20316;-81
2023/12/12 20:48:54;;;;;;;48.97;29.17;;;7.80;99.90;;;;;;10370279;28;20317;-81
2023/12/12 20:53:56;;;;;;;44.07;27.87;;;7.80;99.90;;;;;;10364712;28;20287;-81
2023/12/12 20:58:59;;;;;;;46.43;28.97;;;7.80;99.90;;;;;;10366202;28;20228;-81
2023/12/12 21:04:01;;;;;;;59.10;35.17;;;7.70;99.90;;;;;;10336570;28;20283;-81
2023/12/12 21:09:04;;;;;;;81.10;40.63;;;7.00;99.90;;;;;;10341877;28;20714;-81
2023/12/12 21:14:07;;;;;;;74.70;40.37;;;7.00;99.90;;;;;;10340700;28;20283;-81
2023/12/12 21:19:11;;;;;;;66.77;39.53;;;7.00;99.90;;;;;;10397918;28;20687;-81
2023/12/12 21:24:14;;;;;;;68.00;37.67;;;7.10;99.90;;;;;;10397010;28;20244;-81
2023/12/12 21:29:17;;;;;;;64.63;37.90;;;6.90;99.90;;;;;;10330278;28;20287;-81
2023/12/12 21:34:19;;;;;;;61.50;36.97;;;6.60;99.90;;;;;;10345772;28;20284;-81
2023/12/12 21:39:22;;;;;;;73.17;38.67;;;6.70;99.90;;;;;;10344332;28;20289;-81
2023/12/12 21:44:24;;;;;;;65.43;35.37;;;6.60;99.90;;;;;;10362800;28;20776;-81
2023/12/12 21:49:27;;;;;;;68.33;37.63;;;6.90;99.90;;;;;;10370090;28;20316;-81
2023/12/12 21:54:30;;;;;;;71.57;37.07;;;6.80;99.90;;;;;;10370001;28;20311;-81
2023/12/12 21:59:32;;;;;;;64.87;37.63;;;6.70;99.90;;;;;;10355977;28;20252;-81
2023/12/12 22:04:35;;;;;;;67.03;39.23;;;6.60;99.90;;;;;;10329254;28;20241;-81
2023/12/12 22:09:38;;;;;;;72.37;39.07;;;6.80;99.90;;;;;;10335730;28;20266;-81
2023/12/12 22:14:41;;;;;;;72.33;39.10;;;6.90;99.90;;;;;;10368856;28;20315;-81
2023/12/12 22:19:43;;;;;;;69.17;36.67;;;6.70;99.90;;;;;;10343776;28;20265;-81
2023/12/12 22:25:03;;;;;;;60.17;35.53;;;6.40;99.90;;;;;;10358199;28;20242;-80
2023/12/12 22:30:07;;;;;;;64.70;37.33;;;6.60;99.90;;;;;;10330601;28;20243;-81
2023/12/12 22:35:11;;;;;;;61.37;36.37;;;7.20;99.90;;;;;;10361527;28;20290;-82
2023/12/12 22:40:16;;;;;;;59.10;34.73;;;7.00;99.90;;;;;;10366772;28;20240;-81
2023/12/12 22:45:20;;;;;;;60.40;35.57;;;7.00;99.90;;;;;;10362350;28;20765;-81
2023/12/12 22:50:23;;;;;;;50.23;31.23;;;6.70;99.90;;;;;;10365229;28;20255;-81
2023/12/12 22:55:28;;;;;;;69.97;36.93;;;6.70;99.90;;;;;;10365444;28;20707;-82
2023/12/12 23:00:32;;;;;;;65.23;37.90;;;7.00;99.90;;;;;;10365187;28;20224;-82
2023/12/12 23:05:35;;;;;;;70.17;36.27;;;6.90;99.90;;;;;;10365906;28;20281;-81
2023/12/12 23:10:38;;;;;;;73.53;39.10;;;7.00;99.90;;;;;;10360057;28;20644;-82
2023/12/12 23:15:43;;;;;;;72.97;38.87;;;6.60;99.90;;;;;;10362469;28;20252;-81
2023/12/12 23:20:45;;;;;;;86.67;46.90;;;6.80;99.90;;;;;;10358918;28;20293;-81
2023/12/12 23:25:48;;;;;;;65.90;37.37;;;7.20;99.90;;;;;;10364400;28;20260;-81
2023/12/12 23:30:50;;;;;;;80.13;43.90;;;7.40;99.90;;;;;;10364747;28;20885;-82
2023/12/12 23:36:09;;;;;;;78.97;43.60;;;7.30;99.90;;;;;;10357597;28;20247;-80
2023/12/12 23:41:11;;;;;;;90.23;45.97;;;7.20;99.90;;;;;;10363055;28;20655;-81
2023/12/12 23:46:14;;;;;;;79.23;42.63;;;7.40;99.90;;;;;;10363204;28;20290;-81
2023/12/12 23:51:18;;;;;;;79.57;44.57;;;7.20;99.90;;;;;;10372796;28;20246;-81
2023/12/12 23:56:20;;;;;;;76.03;45.47;;;7.40;99.90;;;;;;10365388;28;20297;-82
